createdAt,value
2022-08-30T00:00:42.736Z,79.85
2022-08-30T00:03:18.016Z,79.51
2022-08-30T00:05:46.737Z,79.33
2022-08-30T00:08:14.649Z,79.85
2022-08-30T00:10:42.649Z,80.15
2022-08-30T00:13:16.042Z,79.79
2022-08-30T00:15:46.187Z,80.22
2022-08-30T00:18:15.618Z,80.48
2022-08-30T00:20:43.128Z,80.38
2022-08-30T00:23:12.935Z,80.19
2022-08-30T00:25:40.578Z,80.06
2022-08-30T00:28:10.638Z,80.59
2022-08-30T00:30:40.898Z,80.69
2022-08-30T00:33:11.020Z,80.84
2022-08-30T00:35:40.179Z,81.03
2022-08-30T00:38:11.291Z,80.55
2022-08-30T00:40:41.534Z,80.26
2022-08-30T00:43:14.949Z,80.17
2022-08-30T00:45:45.530Z,79.62
2022-08-30T00:48:15.996Z,79.78
2022-08-30T00:50:52.967Z,80.35
2022-08-30T00:53:27.354Z,80.13
2022-08-30T00:55:56.238Z,80.13
2022-08-30T00:58:30.127Z,81.11
2022-08-30T01:01:00.887Z,81.78
2022-08-30T01:03:33.005Z,81.73
2022-08-30T01:06:03.049Z,81.66
2022-08-30T01:08:33.191Z,80.21
2022-08-30T01:11:11.059Z,79.58
2022-08-30T01:13:40.815Z,80.70
2022-08-30T01:16:10.708Z,80.85
2022-08-30T01:18:39.884Z,80.43
2022-08-30T01:21:38.328Z,80.12
2022-08-30T01:24:11.446Z,80.41
2022-08-30T01:26:41.173Z,80.16
2022-08-30T01:29:16.147Z,79.91
2022-08-30T01:31:46.718Z,80.50
2022-08-30T01:34:14.052Z,80.29
2022-08-30T01:36:48.086Z,80.60
2022-08-30T01:39:21.287Z,80.93
2022-08-30T01:41:50.549Z,81.50
2022-08-30T01:44:19.016Z,81.55
2022-08-30T01:46:55.977Z,80.62
2022-08-30T01:49:27.416Z,80.23
2022-08-30T01:52:00.560Z,80.27
2022-08-30T01:54:36.823Z,80.68
2022-08-30T01:57:15.589Z,80.82
2022-08-30T01:59:47.748Z,81.38
2022-08-30T02:02:20.180Z,80.26
2022-08-30T02:04:48.737Z,79.57
2022-08-30T02:07:17.061Z,78.88
2022-08-30T02:09:46.314Z,79.24
2022-08-30T02:12:23.746Z,79.89
2022-08-30T02:14:51.129Z,79.97
2022-08-30T02:17:19.688Z,79.23
2022-08-30T02:19:47.072Z,79.02
2022-08-30T02:22:17.311Z,79.34
2022-08-30T02:24:47.269Z,80.17
2022-08-30T02:27:19.430Z,79.66
2022-08-30T02:29:48.102Z,79.77
2022-08-30T02:32:17.090Z,79.36
2022-08-30T02:34:48.168Z,79.27
2022-08-30T02:37:18.186Z,78.72
2022-08-30T02:39:47.219Z,79.71
2022-08-30T02:42:15.858Z,80.26
2022-08-30T02:44:46.269Z,80.34
2022-08-30T02:47:16.656Z,80.48
2022-08-30T02:49:48.120Z,81.02
2022-08-30T02:52:16.180Z,80.50
2022-08-30T02:54:46.028Z,80.64
2022-08-30T02:57:20.249Z,80.53
2022-08-30T02:59:48.707Z,80.37
2022-08-30T03:02:16.569Z,80.80
2022-08-30T03:04:47.599Z,81.87
2022-08-30T03:07:16.572Z,80.60
2022-08-30T03:09:46.400Z,80.87
2022-08-30T03:12:16.459Z,80.05
2022-08-30T03:14:45.876Z,79.91
2022-08-30T03:17:15.765Z,80.04
2022-08-30T03:19:46.980Z,79.83
2022-08-30T03:22:14.248Z,79.77
2022-08-30T03:24:42.261Z,79.08
2022-08-30T03:27:10.258Z,79.15
2022-08-30T03:29:44.839Z,80.09
2022-08-30T03:32:17.278Z,79.69
2022-08-30T03:34:47.749Z,79.98
2022-08-30T03:37:16.477Z,80.47
2022-08-30T03:39:45.996Z,81.56
2022-08-30T03:42:16.397Z,82.54
2022-08-30T03:44:46.286Z,82.38
2022-08-30T03:47:16.968Z,83.92
2022-08-30T03:49:44.181Z,84.27
2022-08-30T03:52:11.208Z,84.92
2022-08-30T03:54:41.533Z,85.15
2022-08-30T03:57:19.898Z,84.69
2022-08-30T03:59:48.309Z,84.88
2022-08-30T04:02:16.734Z,85.89
2022-08-30T04:04:46.329Z,87.27
2022-08-30T04:07:15.687Z,87.27
2022-08-30T04:09:43.229Z,87.02
2022-08-30T04:12:10.239Z,86.71
2022-08-30T04:14:41.696Z,86.49
2022-08-30T04:17:11.608Z,86.80
2022-08-30T04:19:42.167Z,86.78
2022-08-30T04:22:11.620Z,86.77
2022-08-30T04:24:42.296Z,86.72
2022-08-30T04:27:10.776Z,86.52
2022-08-30T04:29:38.686Z,86.62
2022-08-30T04:32:07.017Z,87.08
2022-08-30T04:34:37.317Z,86.35
2022-08-30T04:37:07.240Z,87.01
2022-08-30T04:39:41.348Z,87.02
2022-08-30T04:42:12.196Z,86.96
2022-08-30T04:44:42.125Z,87.31
2022-08-30T04:47:13.350Z,87.90
2022-08-30T04:49:42.656Z,88.77
2022-08-30T04:52:13.835Z,88.62
2022-08-30T04:54:41.279Z,88.62
2022-08-30T04:57:09.367Z,88.96
2022-08-30T04:59:41.542Z,88.62
2022-08-30T05:02:14.705Z,88.99
2022-08-30T05:05:03.140Z,89.29
2022-08-30T05:07:33.669Z,90.00
2022-08-30T05:10:07.862Z,90.87
2022-08-30T05:12:42.578Z,91.06
2022-08-30T05:15:11.062Z,90.60
2022-08-30T05:17:41.041Z,89.89
2022-08-30T05:20:10.800Z,89.49
2022-08-30T05:22:41.938Z,88.96
2022-08-30T05:25:14.698Z,89.51
2022-08-30T05:27:43.766Z,89.52
2022-08-30T05:30:12.571Z,88.96
2022-08-30T05:32:39.798Z,88.58
2022-08-30T05:35:11.460Z,88.29
2022-08-30T05:37:38.335Z,88.68
2022-08-30T05:40:11.083Z,88.81
2022-08-30T05:42:42.090Z,89.66
2022-08-30T05:45:10.179Z,89.26
2022-08-30T05:47:37.780Z,89.19
2022-08-30T05:50:07.690Z,89.38
2022-08-30T05:52:38.855Z,88.26
2022-08-30T05:55:08.031Z,88.36
2022-08-30T05:57:37.296Z,88.10
2022-08-30T06:00:11.013Z,87.24
2022-08-30T06:02:46.490Z,87.27
2022-08-30T06:05:16.708Z,86.94
2022-08-30T06:07:47.519Z,86.05
2022-08-30T06:10:15.761Z,85.92
2022-08-30T06:12:46.792Z,85.54
2022-08-30T06:15:17.005Z,85.07
2022-08-30T06:17:46.429Z,85.91
2022-08-30T06:20:16.266Z,85.61
2022-08-30T06:22:46.666Z,87.08
2022-08-30T06:25:16.514Z,87.47
2022-08-30T06:27:46.487Z,87.16
2022-08-30T06:30:16.577Z,87.01
2022-08-30T06:32:47.520Z,87.04
2022-08-30T06:35:15.982Z,86.92
2022-08-30T06:37:46.153Z,86.65
2022-08-30T06:40:17.397Z,85.50
2022-08-30T06:42:47.979Z,84.92
2022-08-30T06:45:18.051Z,84.85
2022-08-30T06:47:45.148Z,85.78
2022-08-30T06:50:16.490Z,83.58
2022-08-30T06:52:47.294Z,83.14
2022-08-30T06:55:17.441Z,83.03
2022-08-30T06:57:46.981Z,82.52
2022-08-30T07:00:17.131Z,82.25
2022-08-30T07:02:46.455Z,81.35
2022-08-30T07:05:18.963Z,82.44
2022-08-30T07:07:46.579Z,81.83
2022-08-30T07:10:17.348Z,80.48
2022-08-30T07:12:46.769Z,78.83
2022-08-30T07:15:16.092Z,78.11
2022-08-30T07:18:03.084Z,74.88
2022-08-30T07:20:40.341Z,75.33
2022-08-30T07:23:12.588Z,75.29
2022-08-30T07:25:42.239Z,73.13
2022-08-30T07:28:10.285Z,72.49
2022-08-30T07:30:40.932Z,72.27
2022-08-30T07:33:11.610Z,71.23
2022-08-30T07:35:40.999Z,69.52
2022-08-30T07:38:16.093Z,69.33
2022-08-30T07:40:43.269Z,67.72
2022-08-30T07:43:11.616Z,67.50
2022-08-30T07:45:42.089Z,64.33
2022-08-30T07:48:11.776Z,63.76
2022-08-30T07:50:43.467Z,64.84
2022-08-30T07:53:12.567Z,64.60
2022-08-30T07:55:40.500Z,63.91
2022-08-30T07:58:11.142Z,64.55
2022-08-30T08:00:39.947Z,63.31
2022-08-30T08:03:10.172Z,62.30
2022-08-30T08:05:41.001Z,63.05
2022-08-30T08:08:10.156Z,61.90
2022-08-30T08:10:42.664Z,61.73
2022-08-30T08:13:10.876Z,60.35
2022-08-30T08:15:39.852Z,61.53
2022-08-30T08:18:07.659Z,62.93
2022-08-30T08:20:45.371Z,60.22
2022-08-30T08:23:21.360Z,60.42
2022-08-30T08:26:02.901Z,58.28
2022-08-30T08:28:35.446Z,57.80
2022-08-30T08:31:06.005Z,57.63
2022-08-30T08:33:36.462Z,58.77
2022-08-30T08:36:09.312Z,53.26
2022-08-30T08:38:38.330Z,52.11
2022-08-30T08:41:12.259Z,52.30
2022-08-30T08:43:42.330Z,51.83
2022-08-30T08:46:30.463Z,52.44
2022-08-30T08:49:08.237Z,49.29
2022-08-30T08:52:00.435Z,49.72
2022-08-30T08:54:55.516Z,49.48
2022-08-30T08:57:32.016Z,48.93
2022-08-30T09:00:00.179Z,48.08
2022-08-30T09:02:36.536Z,49.24
2022-08-30T09:05:06.669Z,50.26
2022-08-30T09:07:41.860Z,48.39
2022-08-30T09:10:10.341Z,47.66
2022-08-30T09:12:39.615Z,48.05
2022-08-30T09:15:27.932Z,46.95
2022-08-30T09:18:19.359Z,44.98
2022-08-30T09:20:51.845Z,45.48
2022-08-30T09:23:21.930Z,45.72
2022-08-30T09:26:10.891Z,46.79
2022-08-30T09:28:51.194Z,46.41
2022-08-30T09:31:27.509Z,44.09
2022-08-30T09:34:16.856Z,44.94
2022-08-30T09:36:52.465Z,45.46
2022-08-30T09:39:34.153Z,45.94
2022-08-30T09:42:16.407Z,47.18
2022-08-30T09:44:47.032Z,46.99
2022-08-30T09:47:31.804Z,46.08
2022-08-30T09:50:16.470Z,46.99
2022-08-30T09:53:23.526Z,46.21
2022-08-30T09:56:15.830Z,44.55
2022-08-30T09:59:12.386Z,44.89
2022-08-30T10:01:47.331Z,43.18
2022-08-30T10:04:30.949Z,45.68
2022-08-30T10:07:13.984Z,41.34
2022-08-30T10:09:59.589Z,43.36
2022-08-30T10:12:33.011Z,42.45
2022-08-30T10:15:35.873Z,43.63
2022-08-30T10:18:46.363Z,43.99
2022-08-30T10:21:38.484Z,38.53
2022-08-30T10:24:20.970Z,38.51
2022-08-30T10:26:53.004Z,39.86
2022-08-30T10:29:45.820Z,37.95
2022-08-30T10:32:21.192Z,37.53
2022-08-30T10:35:06.399Z,37.05
2022-08-30T10:37:42.784Z,36.85
2022-08-30T10:40:37.428Z,39.32
2022-08-30T10:43:16.510Z,41.17
2022-08-30T10:45:47.345Z,38.17
2022-08-30T10:48:31.062Z,36.70
2022-08-30T10:51:06.876Z,36.83
2022-08-30T10:54:01.275Z,33.84
2022-08-30T10:56:41.117Z,35.56
2022-08-30T10:59:29.745Z,37.62
2022-08-30T11:01:56.850Z,35.64
2022-08-30T11:04:48.911Z,35.28
2022-08-30T11:07:43.098Z,35.19
2022-08-30T11:10:49.538Z,35.85
2022-08-30T11:13:26.458Z,36.21
2022-08-30T11:16:03.054Z,35.69
2022-08-30T11:18:52.293Z,35.90
2022-08-30T11:21:41.519Z,34.68
2022-08-30T11:24:29.178Z,35.02
2022-08-30T11:27:00.889Z,35.10
2022-08-30T11:29:45.656Z,35.38
2022-08-30T11:32:18.447Z,36.53
2022-08-30T11:34:46.152Z,37.23
2022-08-30T11:37:46.445Z,37.34
2022-08-30T11:40:26.733Z,36.23
2022-08-30T11:42:56.732Z,35.72
2022-08-30T11:45:26.712Z,35.69
2022-08-30T11:48:08.447Z,35.53
2022-08-30T11:51:21.608Z,34.24
2022-08-30T11:54:13.609Z,33.53
2022-08-30T11:57:03.228Z,34.56
2022-08-30T12:00:16.518Z,35.91
2022-08-30T12:02:59.434Z,33.18
2022-08-30T12:05:41.915Z,34.96
2022-08-30T12:08:37.336Z,32.69
2022-08-30T12:11:13.334Z,34.11
2022-08-30T12:14:09.230Z,33.46
2022-08-30T12:17:06.488Z,33.14
2022-08-30T12:19:36.752Z,32.22
2022-08-30T12:22:11.135Z,33.18
2022-08-30T12:24:46.586Z,34.33
2022-08-30T12:27:51.230Z,31.92
2022-08-30T12:30:28.452Z,31.10
2022-08-30T12:33:07.718Z,35.08
2022-08-30T12:35:59.801Z,34.42
2022-08-30T12:38:33.108Z,31.13
2022-08-30T12:41:05.628Z,31.63
2022-08-30T12:43:47.882Z,30.39
2022-08-30T12:46:21.998Z,33.28
2022-08-30T12:48:50.617Z,31.49
2022-08-30T12:51:50.462Z,32.11
2022-08-30T12:54:22.219Z,32.02
2022-08-30T12:57:34.969Z,31.67
2022-08-30T13:00:01.956Z,30.91
2022-08-30T13:03:16.192Z,32.24
2022-08-30T13:05:48.577Z,30.48
2022-08-30T13:08:26.956Z,31.21
2022-08-30T13:10:57.910Z,32.63
2022-08-30T13:13:52.294Z,32.46
2022-08-30T13:16:47.320Z,29.15
2022-08-30T13:19:42.530Z,30.98
2022-08-30T13:22:38.788Z,31.20
2022-08-30T13:25:12.134Z,30.51
2022-08-30T13:27:40.591Z,30.91
2022-08-30T13:30:13.354Z,30.87
2022-08-30T13:32:43.259Z,32.60
2022-08-30T13:35:12.464Z,31.50
2022-08-30T13:37:47.441Z,30.62
2022-08-30T13:40:22.516Z,31.83
2022-08-30T13:42:50.851Z,31.57
2022-08-30T13:48:08.677Z,31.98
2022-08-30T13:50:36.963Z,32.58
2022-08-30T13:53:04.237Z,32.08
2022-08-30T13:55:41.053Z,31.98
2022-08-30T13:58:11.041Z,31.52
2022-08-30T14:00:41.473Z,30.97
2022-08-30T14:03:12.113Z,32.26
2022-08-30T14:05:50.900Z,31.88
2022-08-30T14:08:48.533Z,32.24
2022-08-30T14:11:22.325Z,31.48
2022-08-30T14:16:44.070Z,32.06
2022-08-30T14:19:13.420Z,31.07
2022-08-30T14:21:49.512Z,31.09
2022-08-30T14:24:20.068Z,32.83
2022-08-30T14:26:51.650Z,31.98
2022-08-30T14:29:24.792Z,32.05
2022-08-30T14:31:53.655Z,31.92
2022-08-30T14:34:23.221Z,33.51
2022-08-30T14:36:51.516Z,32.48
2022-08-30T14:39:21.041Z,31.75
2022-08-30T14:41:56.559Z,32.71
2022-08-30T14:44:54.742Z,32.70
2022-08-30T14:47:25.659Z,32.42
2022-08-30T14:50:01.598Z,32.85
2022-08-30T14:52:33.766Z,33.88
2022-08-30T14:55:08.777Z,33.73
2022-08-30T14:57:38.645Z,33.63
2022-08-30T15:00:10.161Z,33.47
2022-08-30T15:02:39.596Z,33.83
2022-08-30T15:05:11.664Z,34.13
2022-08-30T15:07:41.714Z,34.12
2022-08-30T15:10:11.032Z,34.13
2022-08-30T15:12:38.476Z,34.29
2022-08-30T15:15:08.007Z,34.66
2022-08-30T15:17:37.669Z,35.14
2022-08-30T15:20:10.587Z,34.49
2022-08-30T15:22:38.560Z,34.47
2022-08-30T15:25:08.115Z,35.42
2022-08-30T15:27:38.393Z,36.02
2022-08-30T15:30:08.001Z,36.92
2022-08-30T15:32:40.610Z,37.46
2022-08-30T15:35:11.517Z,36.89
2022-08-30T15:37:38.726Z,37.02
2022-08-30T15:40:07.965Z,37.27
2022-08-30T15:42:37.272Z,37.92
2022-08-30T15:45:08.141Z,37.80
2022-08-30T15:47:37.198Z,38.17
2022-08-30T15:50:07.534Z,38.14
2022-08-30T15:52:37.450Z,39.07
2022-08-30T15:55:07.441Z,38.64
2022-08-30T15:57:36.578Z,39.32
2022-08-30T16:00:12.082Z,39.36
2022-08-30T16:02:39.365Z,39.20
2022-08-30T16:05:11.150Z,39.47
2022-08-30T16:07:40.973Z,39.50
2022-08-30T16:10:10.677Z,38.91
2022-08-30T16:12:38.469Z,39.28
2022-08-30T16:15:07.510Z,39.66
2022-08-30T16:17:37.041Z,40.38
2022-08-30T16:20:11.794Z,40.42
2022-08-30T16:22:43.610Z,40.05
2022-08-30T16:25:16.241Z,40.89
2022-08-30T16:27:44.239Z,40.54
2022-08-30T16:30:12.391Z,41.57
2022-08-30T16:32:42.083Z,42.04
2022-08-30T16:35:12.313Z,41.72
2022-08-30T16:37:41.659Z,41.49
2022-08-30T16:40:11.247Z,41.98
2022-08-30T16:42:41.563Z,41.65
2022-08-30T16:45:11.394Z,41.89
2022-08-30T16:47:38.403Z,42.44
2022-08-30T16:50:07.164Z,42.46
2022-08-30T16:52:36.631Z,43.14
2022-08-30T16:55:07.898Z,42.63
2022-08-30T16:57:36.974Z,43.16
2022-08-30T17:00:13.333Z,42.85
2022-08-30T17:02:54.229Z,43.25
2022-08-30T17:05:23.591Z,42.86
2022-08-30T17:07:52.527Z,43.07
2022-08-30T17:10:23.184Z,42.80
2022-08-30T17:12:51.934Z,42.90
2022-08-30T17:15:21.327Z,43.18
2022-08-30T17:17:51.112Z,43.50
2022-08-30T17:20:22.317Z,43.94
2022-08-30T17:22:51.431Z,43.66
2022-08-30T17:25:21.480Z,43.69
2022-08-30T17:27:50.870Z,42.86
2022-08-30T17:30:18.082Z,43.28
2022-08-30T17:32:47.996Z,43.48
2022-08-30T17:35:16.644Z,43.39
2022-08-30T17:37:46.528Z,44.38
2022-08-30T17:40:17.944Z,44.29
2022-08-30T17:42:48.641Z,44.68
2022-08-30T17:45:18.545Z,45.03
2022-08-30T17:47:47.638Z,45.24
2022-08-30T17:50:15.114Z,44.89
2022-08-30T17:52:47.358Z,44.81
2022-08-30T17:55:16.950Z,45.38
2022-08-30T17:57:50.873Z,45.91
2022-08-30T18:00:21.321Z,45.96
2022-08-30T18:02:51.697Z,45.79
2022-08-30T18:05:24.423Z,46.85
2022-08-30T18:07:53.029Z,47.29
2022-08-30T18:10:27.217Z,47.60
2022-08-30T18:13:03.834Z,48.63
2022-08-30T18:15:36.045Z,50.11
2022-08-30T18:18:04.751Z,51.02
2022-08-30T18:20:33.127Z,51.70
2022-08-30T18:23:25.722Z,52.38
2022-08-30T18:26:01.204Z,53.00
2022-08-30T18:28:33.258Z,52.76
2022-08-30T18:31:02.289Z,53.32
2022-08-30T18:33:30.569Z,53.27
2022-08-30T18:35:58.835Z,53.05
2022-08-30T18:38:30.631Z,53.07
2022-08-30T18:41:01.363Z,52.32
2022-08-30T18:43:31.567Z,51.99
2022-08-30T18:46:06.301Z,53.58
2022-08-30T18:48:36.609Z,53.58
2022-08-30T18:51:14.892Z,53.67
2022-08-30T18:53:52.904Z,55.03
2022-08-30T18:56:21.820Z,55.46
2022-08-30T18:58:56.932Z,55.96
2022-08-30T19:01:26.904Z,57.09
2022-08-30T19:03:57.355Z,58.07
2022-08-30T19:06:26.848Z,58.19
2022-08-30T19:08:58.750Z,58.22
2022-08-30T19:11:27.704Z,59.58
2022-08-30T19:13:57.604Z,59.26
2022-08-30T19:16:24.680Z,59.58
2022-08-30T19:18:53.401Z,58.77
2022-08-30T19:21:22.329Z,59.08
2022-08-30T19:23:54.958Z,59.79
2022-08-30T19:26:22.791Z,59.18
2022-08-30T19:28:51.852Z,59.67
2022-08-30T19:31:22.171Z,61.52
2022-08-30T19:33:51.728Z,62.68
2022-08-30T19:36:18.657Z,63.04
2022-08-30T19:38:46.625Z,64.23
2022-08-30T19:41:19.110Z,64.14
2022-08-30T19:43:47.840Z,64.91
2022-08-30T19:46:17.561Z,66.78
2022-08-30T19:48:48.129Z,66.00
2022-08-30T19:51:16.668Z,66.23
2022-08-30T19:53:46.978Z,66.08
2022-08-30T19:56:17.178Z,66.08
2022-08-30T19:58:44.457Z,66.37
2022-08-30T20:01:13.267Z,66.27
2022-08-30T20:04:09.325Z,66.84
2022-08-30T20:06:38.893Z,66.99
2022-08-30T20:09:11.135Z,67.67
2022-08-30T20:11:43.161Z,67.76
2022-08-30T20:14:13.528Z,67.13
2022-08-30T20:16:45.958Z,67.90
2022-08-30T20:19:16.961Z,67.92
2022-08-30T20:21:48.099Z,68.07
2022-08-30T20:24:17.760Z,68.08
2022-08-30T20:26:47.275Z,68.04
2022-08-30T20:29:16.785Z,68.08
2022-08-30T20:31:43.836Z,68.09
2022-08-30T20:34:12.792Z,67.82
2022-08-30T20:36:43.411Z,67.72
2022-08-30T20:39:11.022Z,68.05
2022-08-30T20:41:47.423Z,67.74
2022-08-30T20:44:18.291Z,67.59
2022-08-30T20:46:48.458Z,68.25
2022-08-30T20:49:18.310Z,68.52
2022-08-30T20:51:54.822Z,68.87
2022-08-30T20:54:23.435Z,68.76
2022-08-30T20:56:53.659Z,69.25
2022-08-30T20:59:23.113Z,69.25
2022-08-30T21:01:52.362Z,68.99
2022-08-30T21:04:26.480Z,68.92
2022-08-30T21:06:53.589Z,68.61
2022-08-30T21:09:22.796Z,68.79
2022-08-30T21:11:51.466Z,68.73
2022-08-30T21:14:18.658Z,68.55
2022-08-30T21:16:47.057Z,69.19
2022-08-30T21:19:18.878Z,69.98
2022-08-30T21:21:48.091Z,70.28
2022-08-30T21:24:17.368Z,71.07
2022-08-30T21:26:56.400Z,70.92
2022-08-30T21:29:23.590Z,71.39
2022-08-30T21:31:51.843Z,71.78
2022-08-30T21:34:20.808Z,71.79
2022-08-30T21:36:48.481Z,72.06
2022-08-30T21:39:37.390Z,71.46
2022-08-30T21:42:13.678Z,70.93
2022-08-30T21:44:41.839Z,72.21
2022-08-30T21:47:11.577Z,72.52
2022-08-30T21:49:40.291Z,72.30
2022-08-30T21:52:08.722Z,72.39
2022-08-30T21:54:43.398Z,72.33
2022-08-30T21:57:13.998Z,73.07
2022-08-30T21:59:43.065Z,73.31
2022-08-30T22:02:12.338Z,74.52
2022-08-30T22:04:47.715Z,74.31
2022-08-30T22:07:18.335Z,74.29
2022-08-30T22:09:47.511Z,74.26
2022-08-30T22:12:19.300Z,73.33
2022-08-30T22:14:48.651Z,73.55
2022-08-30T22:17:18.991Z,73.94
2022-08-30T22:19:48.160Z,74.49
2022-08-30T22:22:18.446Z,74.14
2022-08-30T22:24:45.536Z,74.12
2022-08-30T22:27:14.167Z,74.14
2022-08-30T22:29:43.330Z,74.79
2022-08-30T22:32:10.999Z,75.35
2022-08-30T22:34:41.912Z,75.11
2022-08-30T22:37:11.429Z,74.52
2022-08-30T22:39:39.570Z,74.55
2022-08-30T22:42:07.959Z,75.01
2022-08-30T22:44:45.525Z,75.66
2022-08-30T22:47:13.184Z,75.39
2022-08-30T22:49:43.901Z,76.31
2022-08-30T22:52:14.560Z,76.55
2022-08-30T22:54:42.311Z,76.81
2022-08-30T22:57:16.295Z,76.77
2022-08-30T22:59:47.177Z,77.09
2022-08-30T23:02:16.628Z,76.66
2022-08-30T23:04:46.856Z,77.69
2022-08-30T23:07:14.069Z,77.65
2022-08-30T23:09:43.089Z,77.56
2022-08-30T23:12:11.669Z,78.90
2022-08-30T23:14:41.549Z,79.12
2022-08-30T23:17:12.395Z,78.78
2022-08-30T23:19:41.773Z,78.64
2022-08-30T23:22:10.542Z,78.71
2022-08-30T23:24:58.966Z,78.97
2022-08-30T23:27:49.618Z,79.55
2022-08-30T23:30:36.532Z,79.49
2022-08-30T23:33:23.100Z,80.94
2022-08-30T23:36:10.548Z,80.82
2022-08-30T23:39:02.251Z,80.12
2022-08-30T23:41:57.096Z,79.89
2022-08-30T23:44:42.678Z,79.83
2022-08-30T23:47:31.103Z,79.37
2022-08-30T23:50:17.586Z,78.79
2022-08-30T23:53:03.895Z,78.44
2022-08-30T23:55:51.916Z,78.22
2022-08-30T23:58:39.482Z,77.78
